sensor_id;sensor_type;location;lat;lon;timestamp;pressure;altitude;pressure_sealevel;temperature;humidity
32761;BME280;19126;47.472;7.850;2023-03-23T00:00:27;96164.34;;;8.28;100.00
32761;BME280;19126;47.472;7.850;2023-03-23T00:02:55;96169.44;;;8.29;100.00
32761;BME280;19126;47.472;7.850;2023-03-23T00:05:25;96161.56;;;8.29;100.00
32761;BME280;19126;47.472;7.850;2023-03-23T00:07:54;96157.31;;;8.28;100.00
32761;BME280;19126;47.472;7.850;2023-03-23T00:10:21;96158.78;;;8.31;100.00
32761;BME280;19126;47.472;7.850;2023-03-23T00:12:54;96156.97;;;8.31;100.00
32761;BME280;19126;47.472;7.850;2023-03-23T00:15:27;96157.97;;;8.30;100.00
32761;BME280;19126;47.472;7.850;2023-03-23T00:17:56;96159.59;;;8.31;100.00
32761;BME280;19126;47.472;7.850;2023-03-23T00:20:28;96166.47;;;8.32;100.00
32761;BME280;19126;47.472;7.850;2023-03-23T00:22:56;96159.25;;;8.34;100.00
32761;BME280;19126;47.472;7.850;2023-03-23T00:25:25;96156.13;;;8.39;100.00
32761;BME280;19126;47.472;7.850;2023-03-23T00:27:52;96167.41;;;8.40;100.00
32761;BME280;19126;47.472;7.850;2023-03-23T00:30:19;96163.81;;;8.41;100.00
32761;BME280;19126;47.472;7.850;2023-03-23T00:32:49;96162.81;;;8.42;100.00
32761;BME280;19126;47.472;7.850;2023-03-23T00:35:17;96160.84;;;8.44;100.00
32761;BME280;19126;47.472;7.850;2023-03-23T00:37:45;96159.66;;;8.46;100.00
32761;BME280;19126;47.472;7.850;2023-03-23T00:40:12;96163.13;;;8.47;100.00
32761;BME280;19126;47.472;7.850;2023-03-23T00:42:39;96160.66;;;8.45;100.00
32761;BME280;19126;47.472;7.850;2023-03-23T00:45:07;96161.19;;;8.49;100.00
32761;BME280;19126;47.472;7.850;2023-03-23T00:47:37;96162.28;;;8.46;100.00
32761;BME280;19126;47.472;7.850;2023-03-23T00:50:08;96156.06;;;8.47;98.43
32761;BME280;19126;47.472;7.850;2023-03-23T00:52:35;96149.72;;;8.50;99.42
32761;BME280;19126;47.472;7.850;2023-03-23T00:55:03;96159.34;;;8.49;100.00
32761;BME280;19126;47.472;7.850;2023-03-23T00:57:30;96151.16;;;8.53;100.00
32761;BME280;19126;47.472;7.850;2023-03-23T00:59:57;96157.88;;;8.55;100.00
32761;BME280;19126;47.472;7.850;2023-03-23T01:02:25;96158.66;;;8.56;100.00
32761;BME280;19126;47.472;7.850;2023-03-23T01:04:55;96163.91;;;8.56;100.00
32761;BME280;19126;47.472;7.850;2023-03-23T01:07:25;96163.41;;;8.60;100.00
32761;BME280;19126;47.472;7.850;2023-03-23T01:10:07;96152.88;;;8.69;100.00
32761;BME280;19126;47.472;7.850;2023-03-23T01:12:38;96146.66;;;8.70;100.00
32761;BME280;19126;47.472;7.850;2023-03-23T01:15:06;96156.13;;;8.71;100.00
32761;BME280;19126;47.472;7.850;2023-03-23T01:17:33;96153.50;;;8.71;100.00
32761;BME280;19126;47.472;7.850;2023-03-23T01:20:00;96157.13;;;8.70;100.00
32761;BME280;19126;47.472;7.850;2023-03-23T01:22:32;96156.94;;;8.71;100.00
32761;BME280;19126;47.472;7.850;2023-03-23T01:24:59;96156.13;;;8.71;100.00
32761;BME280;19126;47.472;7.850;2023-03-23T01:27:26;96154.84;;;8.67;100.00
32761;BME280;19126;47.472;7.850;2023-03-23T01:30:11;96154.03;;;8.66;100.00
32761;BME280;19126;47.472;7.850;2023-03-23T01:32:39;96152.22;;;8.67;100.00
32761;BME280;19126;47.472;7.850;2023-03-23T01:35:06;96153.38;;;8.64;100.00
32761;BME280;19126;47.472;7.850;2023-03-23T01:37:35;96156.47;;;8.68;100.00
32761;BME280;19126;47.472;7.850;2023-03-23T01:40:02;96140.28;;;8.64;100.00
32761;BME280;19126;47.472;7.850;2023-03-23T01:42:32;96131.78;;;8.62;100.00
32761;BME280;19126;47.472;7.850;2023-03-23T01:45:27;96128.19;;;8.63;100.00
32761;BME280;19126;47.472;7.850;2023-03-23T01:48:01;96123.84;;;8.55;100.00
32761;BME280;19126;47.472;7.850;2023-03-23T01:50:31;96131.16;;;8.60;100.00
32761;BME280;19126;47.472;7.850;2023-03-23T01:53:04;96137.38;;;8.59;100.00
32761;BME280;19126;47.472;7.850;2023-03-23T01:55:34;96115.97;;;8.55;100.00
32761;BME280;19126;47.472;7.850;2023-03-23T01:58:04;96121.50;;;8.60;100.00
32761;BME280;19126;47.472;7.850;2023-03-23T02:00:33;96110.03;;;8.61;100.00
32761;BME280;19126;47.472;7.850;2023-03-23T02:03:00;96113.66;;;8.60;100.00
32761;BME280;19126;47.472;7.850;2023-03-23T02:05:30;96111.69;;;8.62;100.00
32761;BME280;19126;47.472;7.850;2023-03-23T02:07:58;96110.84;;;8.62;100.00
32761;BME280;19126;47.472;7.850;2023-03-23T02:10:31;96102.34;;;8.60;100.00
32761;BME280;19126;47.472;7.850;2023-03-23T02:12:59;96099.56;;;8.61;100.00
32761;BME280;19126;47.472;7.850;2023-03-23T02:15:30;96082.88;;;8.62;100.00
32761;BME280;19126;47.472;7.850;2023-03-23T02:18:03;96082.53;;;8.65;100.00
32761;BME280;19126;47.472;7.850;2023-03-23T02:20:41;96069.44;;;8.65;100.00
32761;BME280;19126;47.472;7.850;2023-03-23T02:23:38;96064.34;;;8.64;100.00
32761;BME280;19126;47.472;7.850;2023-03-23T02:26:19;96063.56;;;8.63;100.00
32761;BME280;19126;47.472;7.850;2023-03-23T02:32:08;96058.31;;;8.63;100.00
32761;BME280;19126;47.472;7.850;2023-03-23T02:34:40;96059.94;;;8.64;100.00
32761;BME280;19126;47.472;7.850;2023-03-23T02:37:09;96056.50;;;8.64;100.00
32761;BME280;19126;47.472;7.850;2023-03-23T02:39:42;96054.88;;;8.63;100.00
32761;BME280;19126;47.472;7.850;2023-03-23T02:42:14;96045.59;;;8.60;100.00
32761;BME280;19126;47.472;7.850;2023-03-23T02:44:47;96040.34;;;8.60;100.00
32761;BME280;19126;47.472;7.850;2023-03-23T02:47:18;96036.25;;;8.58;100.00
32761;BME280;19126;47.472;7.850;2023-03-23T02:49:52;96027.78;;;8.56;100.00
32761;BME280;19126;47.472;7.850;2023-03-23T02:52:22;96044.66;;;8.53;100.00
32761;BME280;19126;47.472;7.850;2023-03-23T02:54:53;96042.38;;;8.50;100.00
32761;BME280;19126;47.472;7.850;2023-03-23T02:57:22;96038.16;;;8.49;100.00
32761;BME280;19126;47.472;7.850;2023-03-23T02:59:55;96049.72;;;8.55;100.00
32761;BME280;19126;47.472;7.850;2023-03-23T03:02:26;96044.66;;;8.53;100.00
32761;BME280;19126;47.472;7.850;2023-03-23T03:04:59;96044.31;;;8.56;100.00
32761;BME280;19126;47.472;7.850;2023-03-23T03:07:43;96038.44;;;8.54;100.00
32761;BME280;19126;47.472;7.850;2023-03-23T03:10:16;96028.13;;;8.53;100.00
32761;BME280;19126;47.472;7.850;2023-03-23T03:12:48;96032.38;;;8.54;100.00
32761;BME280;19126;47.472;7.850;2023-03-23T03:15:23;96032.38;;;8.54;100.00
32761;BME280;19126;47.472;7.850;2023-03-23T03:17:55;96026.97;;;8.55;100.00
32761;BME280;19126;47.472;7.850;2023-03-23T03:20:26;96022.88;;;8.53;100.00
32761;BME280;19126;47.472;7.850;2023-03-23T03:22:55;96026.44;;;8.60;100.00
32761;BME280;19126;47.472;7.850;2023-03-23T03:25:22;96033.47;;;8.59;100.00
32761;BME280;19126;47.472;7.850;2023-03-23T03:27:50;96024.81;;;8.59;100.00
32761;BME280;19126;47.472;7.850;2023-03-23T03:30:20;96024.94;;;8.65;100.00
32761;BME280;19126;47.472;7.850;2023-03-23T03:32:50;96020.84;;;8.63;100.00
32761;BME280;19126;47.472;7.850;2023-03-23T03:35:21;96015.09;;;8.68;100.00
32761;BME280;19126;47.472;7.850;2023-03-23T03:37:50;96022.41;;;8.72;100.00
32761;BME280;19126;47.472;7.850;2023-03-23T03:40:21;96016.63;;;8.77;100.00
32761;BME280;19126;47.472;7.850;2023-03-23T03:42:48;96016.72;;;8.84;100.00
32761;BME280;19126;47.472;7.850;2023-03-23T03:45:17;96021.25;;;8.90;100.00
32761;BME280;19126;47.472;7.850;2023-03-23T03:47:45;96017.41;;;9.01;100.00
32761;BME280;19126;47.472;7.850;2023-03-23T03:50:12;96015.50;;;9.09;100.00
32761;BME280;19126;47.472;7.850;2023-03-23T03:52:43;96021.00;;;9.15;100.00
32761;BME280;19126;47.472;7.850;2023-03-23T03:55:12;96017.88;;;9.19;100.00
32761;BME280;19126;47.472;7.850;2023-03-23T03:57:41;96026.63;;;9.27;100.00
32761;BME280;19126;47.472;7.850;2023-03-23T04:00:09;96018.50;;;9.36;100.00
32761;BME280;19126;47.472;7.850;2023-03-23T04:02:41;96010.91;;;9.42;100.00
32761;BME280;19126;47.472;7.850;2023-03-23T04:05:09;96016.59;;;9.45;100.00
32761;BME280;19126;47.472;7.850;2023-03-23T04:07:37;96012.44;;;9.51;100.00
32761;BME280;19126;47.472;7.850;2023-03-23T04:10:06;96013.06;;;9.53;100.00
32761;BME280;19126;47.472;7.850;2023-03-23T04:12:35;96001.97;;;9.51;100.00
32761;BME280;19126;47.472;7.850;2023-03-23T04:15:03;96008.91;;;9.59;100.00
32761;BME280;19126;47.472;7.850;2023-03-23T04:17:34;95994.25;;;9.64;100.00
32761;BME280;19126;47.472;7.850;2023-03-23T04:20:07;96000.44;;;9.78;100.00
32761;BME280;19126;47.472;7.850;2023-03-23T04:22:41;96002.28;;;9.78;100.00
32761;BME280;19126;47.472;7.850;2023-03-23T04:25:10;95996.41;;;9.76;100.00
32761;BME280;19126;47.472;7.850;2023-03-23T04:27:39;96001.06;;;9.80;100.00
32761;BME280;19126;47.472;7.850;2023-03-23T04:30:10;95994.72;;;9.90;100.00
32761;BME280;19126;47.472;7.850;2023-03-23T04:32:38;96009.84;;;9.88;100.00
32761;BME280;19126;47.472;7.850;2023-03-23T04:35:09;96004.03;;;9.92;100.00
32761;BME280;19126;47.472;7.850;2023-03-23T04:37:37;96006.22;;;9.89;100.00
32761;BME280;19126;47.472;7.850;2023-03-23T04:40:06;96018.53;;;9.88;100.00
32761;BME280;19126;47.472;7.850;2023-03-23T04:42:39;96015.34;;;9.93;100.00
32761;BME280;19126;47.472;7.850;2023-03-23T04:45:08;96020.59;;;9.93;100.00
32761;BME280;19126;47.472;7.850;2023-03-23T04:47:38;96024.84;;;9.94;100.00
32761;BME280;19126;47.472;7.850;2023-03-23T04:50:08;96029.28;;;9.93;100.00
32761;BME280;19126;47.472;7.850;2023-03-23T04:52:38;96027.66;;;9.92;100.00
32761;BME280;19126;47.472;7.850;2023-03-23T04:55:11;96032.72;;;9.94;100.00
32761;BME280;19126;47.472;7.850;2023-03-23T04:57:40;96035.97;;;9.96;100.00
32761;BME280;19126;47.472;7.850;2023-03-23T05:00:08;96036.22;;;10.01;100.00
32761;BME280;19126;47.472;7.850;2023-03-23T05:02:38;96029.53;;;9.99;100.00
32761;BME280;19126;47.472;7.850;2023-03-23T05:05:06;96032.44;;;10.04;100.00
32761;BME280;19126;47.472;7.850;2023-03-23T05:07:33;96030.22;;;10.07;100.00
32761;BME280;19126;47.472;7.850;2023-03-23T05:10:07;96038.34;;;10.12;100.00
32761;BME280;19126;47.472;7.850;2023-03-23T05:12:36;96028.06;;;10.11;100.00
32761;BME280;19126;47.472;7.850;2023-03-23T05:15:05;96032.72;;;10.16;100.00
32761;BME280;19126;47.472;7.850;2023-03-23T05:17:35;96033.44;;;10.24;99.18
32761;BME280;19126;47.472;7.850;2023-03-23T05:20:04;96036.75;;;10.33;96.29
32761;BME280;19126;47.472;7.850;2023-03-23T05:22:33;96033.22;;;10.41;96.38
32761;BME280;19126;47.472;7.850;2023-03-23T05:25:02;96037.09;;;10.45;96.43
32761;BME280;19126;47.472;7.850;2023-03-23T05:27:30;96034.09;;;10.48;95.98
32761;BME280;19126;47.472;7.850;2023-03-23T05:29:58;96044.22;;;10.51;95.72
32761;BME280;19126;47.472;7.850;2023-03-23T05:32:31;96046.03;;;10.51;95.20
32761;BME280;19126;47.472;7.850;2023-03-23T05:35:01;96041.66;;;10.58;92.31
32761;BME280;19126;47.472;7.850;2023-03-23T05:37:29;96050.59;;;10.64;90.85
32761;BME280;19126;47.472;7.850;2023-03-23T05:40:05;96047.44;;;10.68;91.08
32761;BME280;19126;47.472;7.850;2023-03-23T05:42:33;96048.84;;;10.71;92.68
32761;BME280;19126;47.472;7.850;2023-03-23T05:45:01;96060.44;;;10.77;92.26
32761;BME280;19126;47.472;7.850;2023-03-23T05:47:32;96051.56;;;10.78;92.48
32761;BME280;19126;47.472;7.850;2023-03-23T05:50:03;96048.72;;;10.79;93.28
32761;BME280;19126;47.472;7.850;2023-03-23T05:52:34;96034.34;;;10.75;92.54
32761;BME280;19126;47.472;7.850;2023-03-23T05:55:07;96055.03;;;10.85;92.15
32761;BME280;19126;47.472;7.850;2023-03-23T05:57:37;96065.22;;;10.95;91.20
32761;BME280;19126;47.472;7.850;2023-03-23T06:00:09;96056.56;;;11.01;91.36
32761;BME280;19126;47.472;7.850;2023-03-23T06:02:49;96058.44;;;11.07;90.78
32761;BME280;19126;47.472;7.850;2023-03-23T06:05:26;96039.78;;;11.02;91.27
32761;BME280;19126;47.472;7.850;2023-03-23T06:07:54;96064.53;;;11.14;91.39
32761;BME280;19126;47.472;7.850;2023-03-23T06:10:22;96068.63;;;11.17;90.59
32761;BME280;19126;47.472;7.850;2023-03-23T06:12:49;96072.13;;;11.24;90.03
32761;BME280;19126;47.472;7.850;2023-03-23T06:15:17;96071.72;;;11.27;91.95
32761;BME280;19126;47.472;7.850;2023-03-23T06:17:45;96078.63;;;11.28;94.18
32761;BME280;19126;47.472;7.850;2023-03-23T06:20:14;96084.66;;;11.29;94.74
32761;BME280;19126;47.472;7.850;2023-03-23T06:22:41;96090.38;;;11.33;94.27
32761;BME280;19126;47.472;7.850;2023-03-23T06:25:09;96086.53;;;11.35;94.95
32761;BME280;19126;47.472;7.850;2023-03-23T06:27:38;96092.84;;;11.41;94.79
32761;BME280;19126;47.472;7.850;2023-03-23T06:30:07;96086.00;;;11.47;95.07
32761;BME280;19126;47.472;7.850;2023-03-23T06:32:35;96086.22;;;11.52;93.94
32761;BME280;19126;47.472;7.850;2023-03-23T06:35:04;96087.06;;;11.59;91.98
32761;BME280;19126;47.472;7.850;2023-03-23T06:37:36;96089.94;;;11.64;92.90
32761;BME280;19126;47.472;7.850;2023-03-23T06:40:14;96091.78;;;11.70;95.16
32761;BME280;19126;47.472;7.850;2023-03-23T06:42:44;96097.50;;;11.74;90.11
32761;BME280;19126;47.472;7.850;2023-03-23T06:45:11;96103.16;;;11.78;90.51
32761;BME280;19126;47.472;7.850;2023-03-23T06:47:38;96090.84;;;11.78;90.29
32761;BME280;19126;47.472;7.850;2023-03-23T06:50:06;96090.63;;;11.80;90.29
32761;BME280;19126;47.472;7.850;2023-03-23T06:52:36;96103.78;;;11.80;93.02
32761;BME280;19126;47.472;7.850;2023-03-23T06:55:03;96100.75;;;11.76;90.92
32761;BME280;19126;47.472;7.850;2023-03-23T06:57:31;96101.94;;;11.73;91.75
32761;BME280;19126;47.472;7.850;2023-03-23T07:00:06;96104.56;;;11.73;92.26
32761;BME280;19126;47.472;7.850;2023-03-23T07:02:39;96105.38;;;11.74;91.24
32761;BME280;19126;47.472;7.850;2023-03-23T07:05:07;96102.16;;;11.79;92.34
32761;BME280;19126;47.472;7.850;2023-03-23T07:07:39;96106.84;;;11.83;94.81
32761;BME280;19126;47.472;7.850;2023-03-23T07:10:13;96115.97;;;11.87;94.96
32761;BME280;19126;47.472;7.850;2023-03-23T07:12:41;96114.75;;;11.90;99.08
32761;BME280;19126;47.472;7.850;2023-03-23T07:15:09;96117.03;;;11.93;100.00
32761;BME280;19126;47.472;7.850;2023-03-23T07:17:37;96122.91;;;11.95;100.00
32761;BME280;19126;47.472;7.850;2023-03-23T07:20:05;96126.34;;;11.96;98.83
32761;BME280;19126;47.472;7.850;2023-03-23T07:22:33;96123.31;;;11.99;98.69
32761;BME280;19126;47.472;7.850;2023-03-23T07:25:08;96124.16;;;11.99;97.38
32761;BME280;19126;47.472;7.850;2023-03-23T07:27:37;96123.59;;;12.04;97.05
32761;BME280;19126;47.472;7.850;2023-03-23T07:30:05;96115.28;;;12.07;98.48
32761;BME280;19126;47.472;7.850;2023-03-23T07:32:33;96115.34;;;12.14;98.41
32761;BME280;19126;47.472;7.850;2023-03-23T07:35:00;96125.69;;;12.22;95.78
32761;BME280;19126;47.472;7.850;2023-03-23T07:37:27;96126.31;;;12.31;99.26
32761;BME280;19126;47.472;7.850;2023-03-23T07:40:04;96122.50;;;12.40;98.27
32761;BME280;19126;47.472;7.850;2023-03-23T07:42:43;96136.09;;;12.51;99.32
32761;BME280;19126;47.472;7.850;2023-03-23T07:45:12;96128.84;;;12.59;96.47
32761;BME280;19126;47.472;7.850;2023-03-23T07:47:40;96139.81;;;12.70;96.12
32761;BME280;19126;47.472;7.850;2023-03-23T07:50:10;96139.44;;;12.86;95.95
32761;BME280;19126;47.472;7.850;2023-03-23T07:52:38;96140.06;;;13.02;91.01
32761;BME280;19126;47.472;7.850;2023-03-23T07:55:08;96136.03;;;13.19;91.00
32761;BME280;19126;47.472;7.850;2023-03-23T07:57:43;96138.47;;;13.34;87.31
32761;BME280;19126;47.472;7.850;2023-03-23T08:00:11;96135.44;;;13.51;89.48
32761;BME280;19126;47.472;7.850;2023-03-23T08:02:44;96138.66;;;13.73;88.35
32761;BME280;19126;47.472;7.850;2023-03-23T08:05:14;96149.38;;;13.92;88.12
32761;BME280;19126;47.472;7.850;2023-03-23T08:07:42;96137.56;;;14.01;83.96
32761;BME280;19126;47.472;7.850;2023-03-23T08:10:15;96140.78;;;14.10;85.41
32761;BME280;19126;47.472;7.850;2023-03-23T08:12:45;96150.53;;;14.16;85.08
32761;BME280;19126;47.472;7.850;2023-03-23T08:15:13;96144.41;;;14.23;85.23
32761;BME280;19126;47.472;7.850;2023-03-23T08:17:43;96151.91;;;14.26;82.81
32761;BME280;19126;47.472;7.850;2023-03-23T08:20:11;96160.22;;;14.29;84.10
32761;BME280;19126;47.472;7.850;2023-03-23T08:22:41;96157.75;;;14.34;82.10
32761;BME280;19126;47.472;7.850;2023-03-23T08:25:10;96149.00;;;14.41;80.50
32761;BME280;19126;47.472;7.850;2023-03-23T08:27:42;96149.59;;;14.49;83.78
32761;BME280;19126;47.472;7.850;2023-03-23T08:30:14;96144.25;;;14.56;82.77
32761;BME280;19126;47.472;7.850;2023-03-23T08:32:42;96155.63;;;14.63;81.19
32761;BME280;19126;47.472;7.850;2023-03-23T08:35:10;96159.25;;;14.69;80.79
32761;BME280;19126;47.472;7.850;2023-03-23T08:37:37;96168.63;;;14.72;84.04
32761;BME280;19126;47.472;7.850;2023-03-23T08:40:15;96181.19;;;14.76;81.90
32761;BME280;19126;47.472;7.850;2023-03-23T08:42:47;96188.75;;;14.73;78.77
32761;BME280;19126;47.472;7.850;2023-03-23T08:45:18;96191.78;;;14.76;78.90
32761;BME280;19126;47.472;7.850;2023-03-23T08:47:45;96198.31;;;14.74;80.53
32761;BME280;19126;47.472;7.850;2023-03-23T08:50:16;96206.81;;;14.69;79.34
32761;BME280;19126;47.472;7.850;2023-03-23T08:52:43;96208.47;;;14.70;75.17
32761;BME280;19126;47.472;7.850;2023-03-23T08:55:10;96213.16;;;14.75;74.20
32761;BME280;19126;47.472;7.850;2023-03-23T08:57:38;96210.47;;;14.82;74.31
32761;BME280;19126;47.472;7.850;2023-03-23T09:00:12;96200.47;;;14.90;74.84
32761;BME280;19126;47.472;7.850;2023-03-23T09:02:45;96200.56;;;15.09;75.76
32761;BME280;19126;47.472;7.850;2023-03-23T09:05:13;96198.03;;;15.21;74.53
32761;BME280;19126;47.472;7.850;2023-03-23T09:07:43;96221.91;;;15.39;72.92
32761;BME280;19126;47.472;7.850;2023-03-23T09:10:14;96221.03;;;15.52;73.74
32761;BME280;19126;47.472;7.850;2023-03-23T09:12:43;96221.78;;;15.60;73.90
32761;BME280;19126;47.472;7.850;2023-03-23T09:15:11;96224.34;;;15.66;73.09
32761;BME280;19126;47.472;7.850;2023-03-23T09:17:41;96229.81;;;15.72;74.47
32761;BME280;19126;47.472;7.850;2023-03-23T09:20:11;96234.25;;;15.78;75.32
32761;BME280;19126;47.472;7.850;2023-03-23T09:22:40;96229.94;;;15.83;74.46
32761;BME280;19126;47.472;7.850;2023-03-23T09:25:09;96217.91;;;15.81;74.99
32761;BME280;19126;47.472;7.850;2023-03-23T09:27:37;96226.88;;;15.80;76.74
32761;BME280;19126;47.472;7.850;2023-03-23T09:30:05;96229.69;;;15.85;75.44
32761;BME280;19126;47.472;7.850;2023-03-23T09:32:33;96226.44;;;15.90;77.38
32761;BME280;19126;47.472;7.850;2023-03-23T09:35:01;96220.94;;;15.91;72.03
32761;BME280;19126;47.472;7.850;2023-03-23T09:37:30;96218.84;;;15.68;67.02
32761;BME280;19126;47.472;7.850;2023-03-23T09:40:03;96225.88;;;15.56;66.40
32761;BME280;19126;47.472;7.850;2023-03-23T09:42:37;96224.47;;;15.53;66.53
32761;BME280;19126;47.472;7.850;2023-03-23T09:45:13;96215.34;;;15.49;66.01
32761;BME280;19126;47.472;7.850;2023-03-23T09:47:46;96215.28;;;15.56;69.59
32761;BME280;19126;47.472;7.850;2023-03-23T09:50:20;96210.19;;;15.54;67.98
32761;BME280;19126;47.472;7.850;2023-03-23T09:52:58;96210.84;;;15.49;66.29
32761;BME280;19126;47.472;7.850;2023-03-23T09:55:26;96211.22;;;15.53;65.19
32761;BME280;19126;47.472;7.850;2023-03-23T09:57:55;96215.06;;;15.57;65.97
32761;BME280;19126;47.472;7.850;2023-03-23T10:00:29;96202.22;;;15.61;65.29
32761;BME280;19126;47.472;7.850;2023-03-23T10:03:00;96204.03;;;15.60;63.97
32761;BME280;19126;47.472;7.850;2023-03-23T10:05:32;96207.88;;;15.64;63.44
32761;BME280;19126;47.472;7.850;2023-03-23T10:08:05;96213.00;;;15.59;64.34
32761;BME280;19126;47.472;7.850;2023-03-23T10:10:45;96216.47;;;15.60;63.70
32761;BME280;19126;47.472;7.850;2023-03-23T10:13:20;96209.88;;;15.69;66.84
32761;BME280;19126;47.472;7.850;2023-03-23T10:15:50;96208.19;;;15.75;64.82
32761;BME280;19126;47.472;7.850;2023-03-23T10:18:22;96203.28;;;15.78;67.65
32761;BME280;19126;47.472;7.850;2023-03-23T10:20:59;96205.66;;;15.87;66.40
32761;BME280;19126;47.472;7.850;2023-03-23T10:23:54;96192.84;;;15.58;67.09
32761;BME280;19126;47.472;7.850;2023-03-23T10:26:41;96210.91;;;15.68;68.34
32761;BME280;19126;47.472;7.850;2023-03-23T10:29:15;96204.19;;;15.65;68.01
32761;BME280;19126;47.472;7.850;2023-03-23T10:31:46;96206.38;;;15.50;67.94
32761;BME280;19126;47.472;7.850;2023-03-23T10:34:23;96203.78;;;15.43;68.47
32761;BME280;19126;47.472;7.850;2023-03-23T10:36:56;96219.75;;;15.55;71.84
32761;BME280;19126;47.472;7.850;2023-03-23T10:39:51;96223.75;;;15.64;67.51
32761;BME280;19126;47.472;7.850;2023-03-23T10:42:27;96220.38;;;15.82;69.56
32761;BME280;19126;47.472;7.850;2023-03-23T10:44:56;96224.78;;;15.95;75.30
32761;BME280;19126;47.472;7.850;2023-03-23T10:47:25;96229.28;;;15.88;67.65
32761;BME280;19126;47.472;7.850;2023-03-23T10:49:54;96235.69;;;16.06;69.88
32761;BME280;19126;47.472;7.850;2023-03-23T10:52:33;96224.25;;;16.05;67.47
32761;BME280;19126;47.472;7.850;2023-03-23T10:55:04;96223.31;;;16.00;68.38
32761;BME280;19126;47.472;7.850;2023-03-23T10:57:33;96206.59;;;16.18;71.62
32761;BME280;19126;47.472;7.850;2023-03-23T11:00:07;96207.44;;;16.37;71.78
32761;BME280;19126;47.472;7.850;2023-03-23T11:02:40;96211.69;;;16.57;67.13
32761;BME280;19126;47.472;7.850;2023-03-23T11:05:16;96209.78;;;16.64;66.67
32761;BME280;19126;47.472;7.850;2023-03-23T11:07:49;96219.31;;;16.83;64.45
32761;BME280;19126;47.472;7.850;2023-03-23T11:10:23;96221.53;;;16.87;64.72
32761;BME280;19126;47.472;7.850;2023-03-23T11:12:51;96226.81;;;17.05;62.18
32761;BME280;19126;47.472;7.850;2023-03-23T11:15:27;96227.22;;;17.21;64.33
32761;BME280;19126;47.472;7.850;2023-03-23T11:17:56;96227.53;;;17.43;69.49
32761;BME280;19126;47.472;7.850;2023-03-23T11:20:25;96221.84;;;17.39;63.89
32761;BME280;19126;47.472;7.850;2023-03-23T11:22:54;96217.94;;;17.42;63.12
32761;BME280;19126;47.472;7.850;2023-03-23T11:25:23;96206.97;;;17.62;63.16
32761;BME280;19126;47.472;7.850;2023-03-23T11:27:55;96207.44;;;17.47;63.15
32761;BME280;19126;47.472;7.850;2023-03-23T11:30:26;96202.13;;;17.59;61.20
32761;BME280;19126;47.472;7.850;2023-03-23T11:32:54;96209.53;;;17.69;59.86
32761;BME280;19126;47.472;7.850;2023-03-23T11:35:25;96208.16;;;17.78;60.06
32761;BME280;19126;47.472;7.850;2023-03-23T11:37:56;96202.50;;;17.75;58.62
32761;BME280;19126;47.472;7.850;2023-03-23T11:40:42;96198.34;;;17.91;58.87
32761;BME280;19126;47.472;7.850;2023-03-23T11:43:17;96204.00;;;17.82;57.67
32761;BME280;19126;47.472;7.850;2023-03-23T11:45:50;96202.94;;;17.71;56.43
32761;BME280;19126;47.472;7.850;2023-03-23T11:48:21;96206.88;;;17.69;57.73
32761;BME280;19126;47.472;7.850;2023-03-23T11:50:54;96200.59;;;17.39;57.33
32761;BME280;19126;47.472;7.850;2023-03-23T11:53:27;96198.53;;;17.41;57.74
32761;BME280;19126;47.472;7.850;2023-03-23T11:56:06;96187.00;;;17.48;57.53
32761;BME280;19126;47.472;7.850;2023-03-23T11:58:36;96175.13;;;17.50;56.52
32761;BME280;19126;47.472;7.850;2023-03-23T12:01:06;96181.81;;;17.65;57.26
32761;BME280;19126;47.472;7.850;2023-03-23T12:06:54;96173.41;;;17.92;55.97
32761;BME280;19126;47.472;7.850;2023-03-23T12:09:35;96181.63;;;18.02;56.59
32761;BME280;19126;47.472;7.850;2023-03-23T12:12:16;96178.50;;;18.05;56.15
32761;BME280;19126;47.472;7.850;2023-03-23T12:14:55;96179.97;;;17.89;56.35
32761;BME280;19126;47.472;7.850;2023-03-23T12:17:32;96185.88;;;17.79;55.47
32761;BME280;19126;47.472;7.850;2023-03-23T12:20:16;96184.47;;;17.53;55.24
32761;BME280;19126;47.472;7.850;2023-03-23T12:22:57;96177.44;;;17.58;60.51
32761;BME280;19126;47.472;7.850;2023-03-23T12:28:48;96183.09;;;17.08;58.17
32761;BME280;19126;47.472;7.850;2023-03-23T12:31:25;96174.63;;;17.30;64.30
32761;BME280;19126;47.472;7.850;2023-03-23T12:33:57;96159.63;;;17.23;62.45
32761;BME280;19126;47.472;7.850;2023-03-23T12:36:41;96160.06;;;17.32;60.31
32761;BME280;19126;47.472;7.850;2023-03-23T12:39:37;96168.31;;;17.54;59.65
32761;BME280;19126;47.472;7.850;2023-03-23T12:42:16;96157.56;;;17.61;63.00
32761;BME280;19126;47.472;7.850;2023-03-23T12:45:02;96168.31;;;17.78;67.59
32761;BME280;19126;47.472;7.850;2023-03-23T12:47:37;96167.75;;;17.76;67.25
32761;BME280;19126;47.472;7.850;2023-03-23T12:50:12;96172.47;;;17.62;69.63
32761;BME280;19126;47.472;7.850;2023-03-23T12:52:44;96182.97;;;17.57;71.05
32761;BME280;19126;47.472;7.850;2023-03-23T12:55:17;96176.63;;;17.46;67.84
32761;BME280;19126;47.472;7.850;2023-03-23T12:57:49;96172.09;;;17.35;70.93
32761;BME280;19126;47.472;7.850;2023-03-23T13:00:23;96175.09;;;17.38;70.62
32761;BME280;19126;47.472;7.850;2023-03-23T13:02:56;96173.94;;;17.34;70.52
32761;BME280;19126;47.472;7.850;2023-03-23T13:05:36;96167.34;;;17.25;74.39
32761;BME280;19126;47.472;7.850;2023-03-23T13:08:11;96165.63;;;17.31;72.28
32761;BME280;19126;47.472;7.850;2023-03-23T13:10:40;96158.22;;;17.21;67.40
32761;BME280;19126;47.472;7.850;2023-03-23T13:13:12;96151.28;;;17.20;69.41
32761;BME280;19126;47.472;7.850;2023-03-23T13:15:46;96150.59;;;17.24;71.89
32761;BME280;19126;47.472;7.850;2023-03-23T13:18:18;96150.59;;;17.24;69.40
32761;BME280;19126;47.472;7.850;2023-03-23T13:20:54;96155.22;;;17.29;69.52
32761;BME280;19126;47.472;7.850;2023-03-23T13:23:26;96157.66;;;17.42;70.84
32761;BME280;19126;47.472;7.850;2023-03-23T13:25:56;96163.56;;;17.68;71.11
32761;BME280;19126;47.472;7.850;2023-03-23T13:28:27;96157.78;;;17.71;66.90
32761;BME280;19126;47.472;7.850;2023-03-23T13:31:01;96153.97;;;17.67;60.81